createdAt,value
2019-03-23T00:00:16.733Z,93.5
2019-03-23T00:01:16.751Z,93.5
2019-03-23T00:02:17.044Z,93.8
2019-03-23T00:03:16.360Z,94.0
2019-03-23T00:04:16.648Z,94.1
2019-03-23T00:05:16.969Z,94.0
2019-03-23T00:06:17.274Z,93.8
2019-03-23T00:07:16.580Z,93.8
2019-03-23T00:08:16.886Z,94.1
2019-03-23T00:09:17.191Z,94.0
2019-03-23T00:10:16.486Z,94.2
2019-03-23T00:11:16.564Z,94.2
2019-03-23T00:12:16.856Z,94.1
2019-03-23T00:13:17.150Z,94.1
2019-03-23T00:14:16.453Z,94.0
2019-03-23T00:15:16.799Z,94.0
2019-03-23T00:16:17.085Z,94.2
2019-03-23T00:17:16.394Z,94.2
2019-03-23T00:18:16.688Z,94.2
2019-03-23T00:19:16.992Z,94.2
2019-03-23T00:20:16.282Z,94.2
2019-03-23T00:21:16.338Z,94.2
2019-03-23T00:22:16.638Z,94.2
2019-03-23T00:23:16.940Z,94.1
2019-03-23T00:24:17.246Z,94.0
2019-03-23T00:25:16.566Z,94.1
2019-03-23T00:26:16.876Z,94.0
2019-03-23T00:27:17.201Z,94.1
2019-03-23T00:28:16.478Z,94.0
2019-03-23T00:29:16.780Z,94.0
2019-03-23T00:30:17.086Z,94.1
2019-03-23T00:31:17.241Z,94.2
2019-03-23T00:32:16.522Z,94.2
2019-03-23T00:33:16.836Z,94.2
2019-03-23T00:34:17.115Z,94.3
2019-03-23T00:35:16.423Z,94.4
2019-03-23T00:36:16.727Z,94.3
2019-03-23T00:37:17.028Z,94.3
2019-03-23T00:38:16.320Z,94.4
2019-03-23T00:39:16.633Z,94.4
2019-03-23T00:40:16.959Z,94.5
2019-03-23T00:41:16.987Z,94.4
2019-03-23T00:42:16.270Z,94.4
2019-03-23T00:43:16.574Z,94.4
2019-03-23T00:44:16.913Z,94.4
2019-03-23T00:45:17.254Z,94.5
2019-03-23T00:46:16.557Z,94.4
2019-03-23T00:47:16.843Z,94.5
2019-03-23T00:48:17.148Z,94.5
2019-03-23T00:49:16.449Z,94.5
2019-03-23T00:50:16.784Z,94.5
2019-03-23T00:51:16.828Z,94.5
2019-03-23T00:52:17.122Z,94.5
2019-03-23T00:53:16.451Z,94.5
2019-03-23T00:54:16.756Z,94.5
2019-03-23T00:55:17.089Z,94.5
2019-03-23T00:56:16.752Z,94.5
2019-03-23T00:57:17.096Z,94.6
2019-03-23T00:58:16.404Z,94.5
2019-03-23T00:59:16.704Z,94.5
2019-03-23T01:00:17.020Z,94.5
2019-03-23T01:01:17.050Z,94.5
2019-03-23T01:02:16.368Z,94.5
2019-03-23T01:03:16.670Z,94.3
2019-03-23T01:04:16.969Z,94.5
2019-03-23T01:05:17.308Z,94.5
2019-03-23T01:06:16.614Z,94.5
2019-03-23T01:07:16.883Z,94.5
2019-03-23T01:08:17.195Z,94.4
2019-03-23T01:09:16.509Z,94.3
2019-03-23T01:10:16.852Z,94.3
2019-03-23T01:11:16.889Z,94.3
2019-03-23T01:12:17.170Z,94.5
2019-03-23T01:13:16.432Z,94.6
2019-03-23T01:14:17.427Z,94.7
2019-03-23T01:15:16.762Z,94.6
2019-03-23T01:16:17.091Z,94.6
2019-03-23T01:17:16.420Z,94.7
2019-03-23T01:18:16.688Z,94.6
2019-03-23T01:19:17.057Z,94.7
2019-03-23T01:20:16.358Z,94.6
2019-03-23T01:21:16.416Z,94.7
2019-03-23T01:22:16.735Z,94.5
2019-03-23T01:23:17.037Z,94.7
2019-03-23T01:24:16.362Z,94.7
2019-03-23T01:25:16.654Z,94.6
2019-03-23T01:26:17.090Z,94.5
2019-03-23T01:27:16.391Z,94.5
2019-03-23T01:28:16.685Z,94.6
2019-03-23T01:29:17.023Z,94.5
2019-03-23T01:30:16.338Z,94.5
2019-03-23T01:31:16.369Z,94.6
2019-03-23T01:32:16.692Z,94.5
2019-03-23T01:33:16.970Z,94.6
2019-03-23T01:34:17.298Z,94.7
2019-03-23T01:35:16.583Z,94.7
2019-03-23T01:36:16.888Z,94.7
2019-03-23T01:37:17.191Z,94.7
2019-03-23T01:38:16.477Z,94.7
2019-03-23T01:39:16.776Z,94.8
2019-03-23T01:40:17.106Z,94.9
2019-03-23T01:41:17.121Z,94.8
2019-03-23T01:42:16.441Z,94.9
2019-03-23T01:43:16.753Z,95.0
2019-03-23T01:44:17.066Z,95.0
2019-03-23T01:45:16.362Z,95.0
2019-03-23T01:46:16.688Z,95.0
2019-03-23T01:47:16.985Z,95.1
2019-03-23T01:48:17.271Z,95.0
2019-03-23T01:49:16.569Z,95.0
2019-03-23T01:50:16.880Z,95.0
2019-03-23T01:51:16.890Z,95.0
2019-03-23T01:52:17.218Z,95.1
2019-03-23T01:53:16.523Z,95.2
2019-03-23T01:54:16.827Z,95.2
2019-03-23T01:55:17.130Z,95.2
2019-03-23T01:56:16.468Z,95.2
2019-03-23T01:57:16.766Z,95.2
2019-03-23T01:58:17.062Z,95.3
2019-03-23T01:59:16.370Z,95.3
2019-03-23T02:00:16.673Z,95.3
2019-03-23T02:01:16.744Z,95.2
2019-03-23T02:02:17.037Z,95.2
2019-03-23T02:03:16.332Z,95.2
2019-03-23T02:04:16.637Z,95.3
2019-03-23T02:05:16.971Z,95.3
2019-03-23T02:06:17.304Z,95.3
2019-03-23T02:07:16.585Z,95.4
2019-03-23T02:08:16.880Z,95.5
2019-03-23T02:09:17.227Z,95.5
2019-03-23T02:10:16.556Z,95.5
2019-03-23T02:11:16.574Z,95.5
2019-03-23T02:12:16.885Z,95.5
2019-03-23T02:13:17.186Z,95.5
2019-03-23T02:14:16.505Z,95.6
2019-03-23T02:15:16.803Z,95.7
2019-03-23T02:16:17.106Z,95.7
2019-03-23T02:17:16.417Z,95.7
2019-03-23T02:18:16.721Z,95.7
2019-03-23T02:19:17.027Z,95.7
2019-03-23T02:20:16.301Z,95.6
2019-03-23T02:21:16.374Z,95.5
2019-03-23T02:22:16.658Z,95.5
2019-03-23T02:23:16.986Z,95.6
2019-03-23T02:24:16.281Z,95.7
2019-03-23T02:25:16.612Z,95.7
2019-03-23T02:26:16.915Z,95.8
2019-03-23T02:27:17.256Z,95.7
2019-03-23T02:28:16.577Z,95.7
2019-03-23T02:29:16.883Z,95.7
2019-03-23T02:30:17.234Z,95.7
2019-03-23T02:31:17.434Z,95.6
2019-03-23T02:32:16.771Z,95.6
2019-03-23T02:33:17.083Z,95.7
2019-03-23T02:34:16.390Z,95.7
2019-03-23T02:35:16.678Z,95.6
2019-03-23T02:36:17.003Z,95.7
2019-03-23T02:37:28.247Z,95.7
2019-03-23T02:38:16.676Z,95.6
2019-03-23T02:39:16.982Z,95.5
2019-03-23T02:40:17.296Z,95.4
2019-03-23T02:41:16.370Z,95.4
2019-03-23T02:42:16.724Z,95.4
2019-03-23T02:43:17.035Z,95.3
2019-03-23T02:44:16.376Z,95.3
2019-03-23T02:45:16.716Z,95.3
2019-03-23T02:46:17.043Z,95.3
2019-03-23T02:47:16.350Z,95.3
2019-03-23T02:48:16.667Z,95.3
2019-03-23T02:49:16.979Z,95.2
2019-03-23T02:50:17.312Z,95.2
2019-03-23T02:51:16.380Z,95.2
2019-03-23T02:52:16.677Z,95.2
2019-03-23T02:53:16.975Z,95.2
2019-03-23T02:54:17.283Z,95.3
2019-03-23T02:55:16.619Z,95.3
2019-03-23T02:56:16.950Z,95.3
2019-03-23T02:57:17.253Z,95.3
2019-03-23T02:58:16.572Z,95.2
2019-03-23T02:59:16.882Z,95.2
2019-03-23T03:00:17.210Z,95.2
2019-03-23T03:01:17.235Z,95.2
2019-03-23T03:02:16.551Z,95.2
2019-03-23T03:03:16.840Z,95.2
2019-03-23T03:04:17.156Z,95.3
2019-03-23T03:05:16.877Z,95.3
2019-03-23T03:06:17.213Z,95.3
2019-03-23T03:07:16.553Z,95.2
2019-03-23T03:08:16.850Z,95.2
2019-03-23T03:09:17.155Z,95.2
2019-03-23T03:10:16.472Z,95.2
2019-03-23T03:11:16.549Z,95.2
2019-03-23T03:12:16.865Z,95.2
2019-03-23T03:13:17.170Z,95.2
2019-03-23T03:14:16.480Z,95.0
2019-03-23T03:15:16.792Z,95.0
2019-03-23T03:16:17.086Z,95.0
2019-03-23T03:17:16.424Z,95.0
2019-03-23T03:18:16.746Z,94.8
2019-03-23T03:19:17.058Z,94.8
2019-03-23T03:20:16.405Z,95.0
2019-03-23T03:21:16.424Z,95.2
2019-03-23T03:22:16.754Z,95.3
2019-03-23T03:23:17.065Z,95.2
2019-03-23T03:24:16.404Z,95.2
2019-03-23T03:25:16.746Z,95.2
2019-03-23T03:26:17.058Z,95.2
2019-03-23T03:27:16.397Z,95.2
2019-03-23T03:28:16.715Z,95.3
2019-03-23T03:29:17.025Z,95.3
2019-03-23T03:30:16.360Z,95.3
2019-03-23T03:31:16.464Z,95.3
2019-03-23T03:32:16.830Z,95.2
2019-03-23T03:33:17.176Z,95.2
2019-03-23T03:34:16.493Z,95.3
2019-03-23T03:35:16.871Z,95.3
2019-03-23T03:36:17.204Z,95.3
2019-03-23T03:37:16.518Z,95.3
2019-03-23T03:38:16.819Z,95.5
2019-03-23T03:39:17.167Z,95.5
2019-03-23T03:40:16.501Z,95.6
2019-03-23T03:41:16.524Z,95.7
2019-03-23T03:42:17.053Z,95.6
2019-03-23T03:43:16.366Z,95.6
2019-03-23T03:44:16.669Z,95.5
2019-03-23T03:45:16.980Z,95.6
2019-03-23T03:46:17.310Z,95.5
2019-03-23T03:47:16.628Z,95.7
2019-03-23T03:48:16.947Z,95.7
2019-03-23T03:49:17.266Z,95.6
2019-03-23T03:50:16.615Z,95.8
2019-03-23T03:51:16.618Z,95.8
2019-03-23T03:52:16.945Z,95.8
2019-03-23T03:53:17.255Z,95.8
2019-03-23T03:54:16.561Z,95.8
2019-03-23T03:55:16.917Z,95.7
2019-03-23T03:56:17.547Z,95.8
2019-03-23T03:57:16.871Z,95.8
2019-03-23T03:58:17.211Z,95.8
2019-03-23T03:59:16.534Z,95.8
2019-03-23T04:00:16.825Z,95.7
2019-03-23T04:01:16.890Z,95.7
2019-03-23T04:02:17.176Z,95.7
2019-03-23T04:03:16.503Z,95.7
2019-03-23T04:04:16.833Z,95.7
2019-03-23T04:05:17.180Z,95.8
2019-03-23T04:06:16.487Z,95.8
2019-03-23T04:07:16.886Z,95.8
2019-03-23T04:08:17.195Z,95.7
2019-03-23T04:09:16.471Z,95.7
2019-03-23T04:10:16.792Z,95.7
2019-03-23T04:11:16.847Z,95.6
2019-03-23T04:12:17.178Z,95.5
2019-03-23T04:13:16.472Z,95.6
2019-03-23T04:14:16.780Z,95.6
2019-03-23T04:15:17.146Z,95.5
2019-03-23T04:16:16.431Z,95.6
2019-03-23T04:17:16.751Z,95.4
2019-03-23T04:18:17.055Z,95.3
2019-03-23T04:19:16.360Z,95.5
2019-03-23T04:20:16.677Z,95.3
2019-03-23T04:21:16.828Z,95.3
2019-03-23T04:22:17.164Z,95.3
2019-03-23T04:23:16.500Z,95.5
2019-03-23T04:24:16.822Z,95.5
2019-03-23T04:25:17.167Z,95.7
2019-03-23T04:26:16.474Z,95.6
2019-03-23T04:27:16.802Z,95.5
2019-03-23T04:28:17.117Z,95.5
2019-03-23T04:29:16.439Z,95.6
2019-03-23T04:30:16.786Z,95.7
2019-03-23T04:31:16.826Z,95.8
2019-03-23T04:32:17.113Z,95.7
2019-03-23T04:33:16.421Z,95.7
2019-03-23T04:34:16.742Z,95.8
2019-03-23T04:35:17.038Z,95.7
2019-03-23T04:36:16.346Z,95.7
2019-03-23T04:37:16.658Z,95.7
2019-03-23T04:38:23.274Z,95.6
2019-03-23T04:39:16.694Z,95.5
2019-03-23T04:40:17.023Z,95.5
2019-03-23T04:41:17.072Z,95.5
2019-03-23T04:42:16.348Z,95.5
2019-03-23T04:43:16.704Z,95.5
2019-03-23T04:44:17.007Z,95.5
2019-03-23T04:45:16.316Z,95.5
2019-03-23T04:46:16.633Z,95.5
2019-03-23T04:47:16.940Z,95.5
2019-03-23T04:48:17.247Z,95.5
2019-03-23T04:49:16.536Z,95.5
2019-03-23T04:50:16.832Z,95.6
2019-03-23T04:51:16.875Z,95.7
2019-03-23T04:52:17.173Z,95.7
2019-03-23T04:53:16.480Z,95.7
2019-03-23T04:54:16.794Z,95.7
2019-03-23T04:55:17.105Z,95.7
2019-03-23T04:56:16.448Z,95.6
2019-03-23T04:57:16.752Z,95.6
2019-03-23T04:58:17.043Z,95.6
2019-03-23T04:59:16.353Z,95.7
2019-03-23T05:00:16.632Z,95.7
2019-03-23T05:01:16.689Z,95.6
2019-03-23T05:02:16.992Z,95.7
2019-03-23T05:03:16.301Z,95.8
2019-03-23T05:04:16.585Z,95.7
2019-03-23T05:05:16.898Z,95.7
2019-03-23T05:06:17.216Z,95.7
2019-03-23T05:07:16.535Z,95.7
2019-03-23T05:08:16.834Z,95.3
2019-03-23T05:09:17.138Z,95.3
2019-03-23T05:10:16.460Z,95.2
2019-03-23T05:11:16.515Z,95.2
2019-03-23T05:12:16.784Z,95.2
2019-03-23T05:13:17.082Z,95.2
2019-03-23T05:14:16.395Z,95.3
2019-03-23T05:15:16.720Z,95.3
2019-03-23T05:16:17.019Z,95.3
2019-03-23T05:17:16.306Z,95.4
2019-03-23T05:18:16.633Z,95.5
2019-03-23T05:19:16.933Z,95.5
2019-03-23T05:20:17.220Z,95.5
2019-03-23T05:21:16.296Z,95.5
2019-03-23T05:22:16.552Z,95.5
2019-03-23T05:23:16.849Z,95.5
2019-03-23T05:24:17.154Z,95.5
2019-03-23T05:25:16.457Z,95.5
2019-03-23T05:26:16.772Z,95.4
2019-03-23T05:27:17.078Z,95.4
2019-03-23T05:28:16.378Z,95.3
2019-03-23T05:29:16.705Z,95.2
2019-03-23T05:30:17.046Z,95.2
2019-03-23T05:31:17.073Z,95.2
2019-03-23T05:32:16.374Z,95.1
2019-03-23T05:33:16.659Z,95.1
2019-03-23T05:34:17.003Z,95.1
2019-03-23T05:35:16.298Z,95.0
2019-03-23T05:36:16.601Z,95.0
2019-03-23T05:37:16.899Z,95.2
2019-03-23T05:38:17.203Z,95.1
2019-03-23T05:39:16.529Z,95.0
2019-03-23T05:40:16.840Z,95.0
2019-03-23T05:41:16.852Z,95.0
2019-03-23T05:42:17.169Z,95.1
2019-03-23T05:43:16.459Z,95.1
2019-03-23T05:44:16.747Z,95.1
2019-03-23T05:45:17.057Z,95.1
2019-03-23T05:46:16.363Z,95.2
2019-03-23T05:47:16.680Z,95.2
2019-03-23T05:48:16.997Z,95.0
2019-03-23T05:49:16.275Z,95.0
2019-03-23T05:50:16.605Z,95.0
2019-03-23T05:51:16.625Z,94.9
2019-03-23T05:52:16.939Z,94.8
2019-03-23T05:53:17.285Z,94.7
2019-03-23T05:54:16.581Z,94.5
2019-03-23T05:55:16.909Z,94.3
2019-03-23T05:56:17.531Z,94.2
2019-03-23T05:57:16.831Z,94.2
2019-03-23T05:58:17.132Z,94.2
2019-03-23T05:59:16.454Z,94.0
2019-03-23T06:00:16.757Z,94.0
2019-03-23T06:01:16.787Z,93.8
2019-03-23T06:02:17.087Z,93.9
2019-03-23T06:03:16.375Z,93.8
2019-03-23T06:04:16.650Z,93.5
2019-03-23T06:05:16.910Z,93.4
2019-03-23T06:06:17.624Z,93.3
2019-03-23T06:07:16.912Z,93.3
2019-03-23T06:08:17.193Z,93.2
2019-03-23T06:09:16.487Z,93.3
2019-03-23T06:10:16.791Z,93.5
2019-03-23T06:11:16.830Z,93.2
2019-03-23T06:12:17.915Z,93.0
2019-03-23T06:13:17.254Z,93.0
2019-03-23T06:14:16.594Z,92.8
2019-03-23T06:15:16.905Z,92.9
2019-03-23T06:16:18.096Z,92.8
2019-03-23T06:17:16.397Z,92.7
2019-03-23T06:18:16.686Z,92.6
2019-03-23T06:19:16.989Z,92.7
2019-03-23T06:20:16.309Z,92.7
2019-03-23T06:21:16.329Z,92.3
2019-03-23T06:22:16.650Z,92.2
2019-03-23T06:23:16.953Z,92.2
2019-03-23T06:24:17.255Z,91.9
2019-03-23T06:25:16.614Z,91.9
2019-03-23T06:26:16.941Z,91.7
2019-03-23T06:27:17.241Z,91.7
2019-03-23T06:28:16.557Z,91.2
2019-03-23T06:29:16.860Z,91.1
2019-03-23T06:30:17.181Z,91.2
2019-03-23T06:31:17.254Z,90.8
2019-03-23T06:32:16.557Z,90.6
2019-03-23T06:33:16.845Z,90.4
2019-03-23T06:34:17.187Z,90.2
2019-03-23T06:35:16.499Z,90.0
2019-03-23T06:36:16.819Z,90.0
2019-03-23T06:37:17.099Z,89.8
2019-03-23T06:38:16.558Z,89.5
2019-03-23T06:39:16.857Z,88.8
2019-03-23T06:40:17.162Z,88.7
2019-03-23T06:41:17.232Z,88.5
2019-03-23T06:42:16.548Z,88.2
2019-03-23T06:43:16.861Z,88.2
2019-03-23T06:44:18.573Z,88.2
2019-03-23T06:45:16.859Z,88.3
2019-03-23T06:46:17.155Z,88.2
2019-03-23T06:47:16.462Z,88.0
2019-03-23T06:48:16.759Z,88.3
2019-03-23T06:49:17.080Z,88.7
2019-03-23T06:50:16.381Z,88.6
2019-03-23T06:51:16.432Z,88.5
2019-03-23T06:52:16.735Z,89.6
2019-03-23T06:53:17.056Z,89.7
2019-03-23T06:54:16.364Z,89.7
2019-03-23T06:55:16.686Z,89.9
2019-03-23T06:56:16.941Z,89.8
2019-03-23T06:57:17.261Z,90.0
2019-03-23T06:58:16.569Z,89.6
2019-03-23T06:59:16.875Z,89.2
2019-03-23T07:00:17.183Z,88.9
2019-03-23T07:01:17.241Z,88.9
2019-03-23T07:02:16.533Z,88.5
2019-03-23T07:03:16.819Z,88.5
2019-03-23T07:04:17.124Z,88.2
2019-03-23T07:05:16.430Z,87.8
2019-03-23T07:06:16.762Z,87.8
2019-03-23T07:07:17.101Z,87.3
2019-03-23T07:08:16.402Z,87.3
2019-03-23T07:09:16.785Z,87.3
2019-03-23T07:10:17.114Z,87.6
2019-03-23T07:11:17.173Z,87.3
2019-03-23T07:12:16.545Z,86.9
2019-03-23T07:13:16.820Z,86.7
2019-03-23T07:14:17.126Z,86.2
2019-03-23T07:15:20.702Z,86.2
2019-03-23T07:16:17.019Z,86.2
2019-03-23T07:17:16.317Z,85.3
2019-03-23T07:18:16.633Z,85.3
2019-03-23T07:19:16.916Z,84.6
2019-03-23T07:20:17.218Z,84.2
2019-03-23T07:21:17.279Z,82.9
2019-03-23T07:22:16.603Z,82.2
2019-03-23T07:23:16.899Z,82.5
2019-03-23T07:24:17.174Z,82.7
2019-03-23T07:25:16.471Z,83.0
2019-03-23T07:26:16.769Z,82.8
2019-03-23T07:27:17.057Z,82.6
2019-03-23T07:28:16.373Z,82.7
2019-03-23T07:29:16.673Z,81.8
2019-03-23T07:30:17.009Z,80.7
2019-03-23T07:31:17.072Z,80.4
2019-03-23T07:32:16.382Z,80.6
2019-03-23T07:33:16.671Z,80.2
2019-03-23T07:34:17.025Z,78.7
2019-03-23T07:35:16.351Z,78.9
2019-03-23T07:36:16.657Z,79.2
2019-03-23T07:37:16.960Z,79.7
2019-03-23T07:38:17.256Z,78.8
2019-03-23T07:39:29.193Z,77.9
2019-03-23T07:40:16.598Z,77.1
2019-03-23T07:41:16.559Z,77.2
2019-03-23T07:42:16.847Z,76.3
2019-03-23T07:43:17.154Z,75.6
2019-03-23T07:44:16.449Z,74.7
2019-03-23T07:45:16.799Z,74.7
2019-03-23T07:46:17.125Z,73.7
2019-03-23T07:47:16.435Z,72.7
2019-03-23T07:48:16.745Z,73.0
2019-03-23T07:49:17.056Z,72.9
2019-03-23T07:50:16.362Z,73.5
2019-03-23T07:51:16.415Z,72.8
2019-03-23T07:52:16.744Z,71.5
2019-03-23T07:53:17.039Z,71.0
2019-03-23T07:54:16.367Z,72.6
2019-03-23T07:55:16.690Z,73.0
2019-03-23T07:56:16.999Z,72.8
2019-03-23T07:57:16.268Z,71.3
2019-03-23T07:58:16.571Z,71.4
2019-03-23T07:59:16.900Z,69.0
2019-03-23T08:00:17.226Z,69.0
2019-03-23T08:01:17.219Z,68.0
2019-03-23T08:02:16.526Z,68.2
2019-03-23T08:03:16.859Z,67.8
2019-03-23T08:04:17.168Z,68.2
2019-03-23T08:05:16.455Z,67.6
2019-03-23T08:06:16.771Z,66.6
2019-03-23T08:07:17.077Z,66.3
2019-03-23T08:08:16.378Z,65.2
2019-03-23T08:09:23.470Z,66.5
2019-03-23T08:10:16.893Z,66.2
2019-03-23T08:11:16.997Z,66.3
2019-03-23T08:12:16.294Z,65.9
2019-03-23T08:13:16.634Z,64.5
2019-03-23T08:14:16.959Z,65.2
2019-03-23T08:15:17.283Z,65.6
2019-03-23T08:16:16.596Z,65.2
2019-03-23T08:17:16.891Z,64.5
2019-03-23T08:18:17.200Z,64.1
2019-03-23T08:19:16.513Z,63.5
2019-03-23T08:20:16.820Z,64.7
2019-03-23T08:21:16.896Z,64.9
2019-03-23T08:22:17.222Z,64.5
2019-03-23T08:23:16.531Z,65.2
2019-03-23T08:24:16.836Z,65.8
2019-03-23T08:25:17.148Z,66.8
2019-03-23T08:26:16.471Z,66.8
2019-03-23T08:27:16.793Z,67.2
2019-03-23T08:28:17.087Z,67.0
2019-03-23T08:29:16.391Z,66.8
2019-03-23T08:30:16.693Z,67.0
2019-03-23T08:31:16.848Z,65.8
2019-03-23T08:32:17.160Z,63.8
2019-03-23T08:33:18.356Z,63.4
2019-03-23T08:34:16.668Z,63.4
2019-03-23T08:35:16.966Z,62.7
2019-03-23T08:36:17.270Z,62.0
2019-03-23T08:37:16.576Z,62.2
2019-03-23T08:38:16.920Z,60.4
2019-03-23T08:39:17.221Z,60.5
2019-03-23T08:40:16.539Z,59.5
2019-03-23T08:41:16.571Z,60.0
2019-03-23T08:42:16.890Z,58.1
2019-03-23T08:43:17.209Z,58.0
2019-03-23T08:44:16.509Z,58.5
2019-03-23T08:45:16.810Z,60.3
2019-03-23T08:46:17.123Z,59.6
2019-03-23T08:47:16.418Z,58.9
2019-03-23T08:48:16.728Z,58.2
2019-03-23T08:49:17.025Z,59.1
2019-03-23T08:50:16.345Z,60.0
2019-03-23T08:51:16.383Z,59.5
2019-03-23T08:52:16.678Z,59.5
2019-03-23T08:53:17.018Z,59.5
2019-03-23T08:54:16.341Z,58.4
2019-03-23T08:55:16.715Z,58.5
2019-03-23T08:56:16.995Z,57.9
2019-03-23T08:57:16.314Z,57.7
2019-03-23T08:58:16.614Z,57.9
2019-03-23T08:59:16.923Z,57.4
2019-03-23T09:00:17.260Z,59.5
2019-03-23T09:01:17.277Z,60.0
2019-03-23T09:02:16.777Z,58.5
2019-03-23T09:03:17.032Z,57.5
2019-03-23T09:04:16.336Z,58.8
2019-03-23T09:05:16.667Z,60.0
2019-03-23T09:06:16.998Z,60.2
2019-03-23T09:07:16.297Z,58.6
2019-03-23T09:08:18.637Z,58.0
2019-03-23T09:09:16.933Z,56.8
2019-03-23T09:10:17.245Z,55.9
2019-03-23T09:11:20.943Z,55.2
2019-03-23T09:12:17.246Z,56.2
2019-03-23T09:13:16.559Z,56.8
2019-03-23T09:14:16.999Z,56.1
2019-03-23T09:15:16.289Z,54.1
2019-03-23T09:16:16.582Z,53.4
2019-03-23T09:17:16.904Z,53.9
2019-03-23T09:18:17.238Z,54.9
2019-03-23T09:19:16.508Z,53.9
2019-03-23T09:20:16.804Z,51.5
2019-03-23T09:21:16.893Z,50.2
2019-03-23T09:22:17.220Z,50.8
2019-03-23T09:23:16.494Z,50.6
2019-03-23T09:24:16.797Z,50.5
2019-03-23T09:25:17.111Z,51.1
2019-03-23T09:26:16.406Z,53.6
2019-03-23T09:27:16.728Z,55.5
2019-03-23T09:28:17.027Z,54.9
2019-03-23T09:29:16.329Z,53.4
2019-03-23T09:30:16.651Z,52.5
2019-03-23T09:31:16.678Z,51.3
2019-03-23T09:32:16.972Z,50.2
2019-03-23T09:33:17.275Z,48.2
2019-03-23T09:34:16.573Z,49.5
2019-03-23T09:35:16.918Z,49.4
2019-03-23T09:36:17.238Z,49.0
2019-03-23T09:37:16.566Z,48.2
2019-03-23T09:38:16.887Z,47.5
2019-03-23T09:39:17.212Z,48.0
2019-03-23T09:40:16.559Z,48.0
2019-03-23T09:41:16.553Z,48.5
2019-03-23T09:42:16.875Z,47.8
2019-03-23T09:43:17.154Z,48.5
2019-03-23T09:44:16.435Z,50.8
2019-03-23T09:45:16.733Z,49.5
2019-03-23T09:46:17.042Z,50.2
2019-03-23T09:47:16.347Z,50.5
2019-03-23T09:48:16.663Z,50.2
2019-03-23T09:49:16.968Z,49.4
2019-03-23T09:50:17.285Z,48.9
2019-03-23T09:51:16.643Z,48.9
2019-03-23T09:52:16.940Z,49.0
2019-03-23T09:53:17.248Z,49.9
2019-03-23T09:54:16.532Z,51.2
2019-03-23T09:55:16.823Z,50.1
2019-03-23T09:56:17.122Z,48.7
2019-03-23T09:57:16.408Z,48.2
2019-03-23T09:58:16.700Z,47.5
2019-03-23T09:59:16.980Z,47.4
2019-03-23T10:00:17.326Z,48.0
2019-03-23T10:01:16.347Z,48.7
2019-03-23T10:02:16.644Z,47.5
2019-03-23T10:03:16.976Z,47.0
2019-03-23T10:04:17.251Z,46.8
2019-03-23T10:05:16.558Z,46.8
2019-03-23T10:06:16.876Z,46.5
2019-03-23T10:07:17.189Z,47.0
2019-03-23T10:08:16.488Z,46.2
2019-03-23T10:09:16.796Z,47.1
2019-03-23T10:10:22.310Z,47.1
2019-03-23T10:11:17.104Z,47.2
2019-03-23T10:12:16.416Z,48.5
2019-03-23T10:13:16.712Z,49.0
2019-03-23T10:14:17.011Z,49.7
2019-03-23T10:15:16.296Z,49.0
2019-03-23T10:16:16.612Z,48.2
2019-03-23T10:17:16.883Z,47.5
2019-03-23T10:18:17.191Z,47.2
2019-03-23T10:19:16.481Z,47.3
2019-03-23T10:20:16.777Z,46.9
2019-03-23T10:21:16.847Z,47.5
2019-03-23T10:22:17.171Z,47.8
2019-03-23T10:23:16.477Z,46.7
2019-03-23T10:24:16.773Z,46.7
2019-03-23T10:25:17.080Z,46.5
2019-03-23T10:26:16.386Z,46.9
2019-03-23T10:27:16.662Z,47.0
2019-03-23T10:28:16.985Z,48.5
2019-03-23T10:29:17.267Z,49.5
2019-03-23T10:30:16.591Z,49.0
2019-03-23T10:31:16.659Z,49.7
2019-03-23T10:32:16.931Z,48.5
2019-03-23T10:33:17.235Z,49.2
2019-03-23T10:34:16.522Z,48.4
2019-03-23T10:35:16.855Z,47.3
2019-03-23T10:36:17.157Z,48.0
2019-03-23T10:37:16.493Z,48.1
2019-03-23T10:38:16.806Z,47.3
2019-03-23T10:39:17.124Z,47.2
2019-03-23T10:40:16.440Z,47.3
2019-03-23T10:41:16.513Z,47.2
2019-03-23T10:42:16.809Z,48.0
2019-03-23T10:43:17.117Z,49.5
2019-03-23T10:44:16.418Z,48.6
2019-03-23T10:45:16.708Z,49.6
2019-03-23T10:46:17.041Z,50.0
2019-03-23T10:47:16.467Z,51.2
2019-03-23T10:48:16.776Z,50.5
2019-03-23T10:49:17.042Z,49.8
2019-03-23T10:50:16.373Z,50.0
2019-03-23T10:51:16.392Z,51.5
2019-03-23T10:52:16.677Z,50.9
2019-03-23T10:53:23.536Z,50.8
2019-03-23T10:54:16.833Z,51.0
2019-03-23T10:55:17.159Z,50.8
2019-03-23T10:56:16.463Z,51.1
2019-03-23T10:57:16.793Z,51.4
2019-03-23T10:58:17.072Z,51.0
2019-03-23T10:59:16.384Z,51.4
2019-03-23T11:00:16.751Z,51.5
2019-03-23T11:01:16.773Z,50.6
2019-03-23T11:02:17.078Z,50.8
2019-03-23T11:03:16.372Z,51.2
2019-03-23T11:04:16.659Z,50.7
2019-03-23T11:05:16.987Z,50.3
2019-03-23T11:06:17.298Z,48.8
2019-03-23T11:07:16.607Z,49.6
2019-03-23T11:08:16.921Z,50.5
2019-03-23T11:09:17.186Z,50.5
2019-03-23T11:10:16.500Z,49.0
2019-03-23T11:11:16.512Z,48.4
2019-03-23T11:12:16.802Z,48.5
2019-03-23T11:13:17.107Z,48.4
2019-03-23T11:14:16.393Z,48.8
2019-03-23T11:15:16.699Z,48.2
2019-03-23T11:16:17.003Z,48.2
2019-03-23T11:17:16.265Z,47.8
2019-03-23T11:18:16.564Z,48.6
2019-03-23T11:19:16.854Z,48.8
2019-03-23T11:20:17.226Z,48.8
2019-03-23T11:21:17.218Z,48.7
2019-03-23T11:22:16.539Z,48.0
2019-03-23T11:23:16.834Z,47.1
2019-03-23T11:24:17.133Z,47.6
2019-03-23T11:25:16.431Z,47.6
2019-03-23T11:26:16.709Z,48.7
2019-03-23T11:27:17.003Z,47.9
2019-03-23T11:28:16.302Z,47.8
2019-03-23T11:29:16.608Z,47.9
2019-03-23T11:30:16.905Z,48.8
2019-03-23T11:31:16.967Z,50.1
2019-03-23T11:32:17.299Z,49.7
2019-03-23T11:33:16.590Z,48.8
2019-03-23T11:34:18.337Z,48.1
2019-03-23T11:35:16.825Z,47.8
2019-03-23T11:36:17.183Z,47.8
2019-03-23T11:37:16.574Z,47.9
2019-03-23T11:38:16.897Z,47.5
2019-03-23T11:39:17.214Z,47.4
2019-03-23T11:40:16.527Z,47.5
2019-03-23T11:41:16.575Z,46.2
2019-03-23T11:42:16.872Z,46.8
2019-03-23T11:43:17.185Z,47.5
2019-03-23T11:44:16.490Z,46.7
2019-03-23T11:45:16.821Z,47.5
2019-03-23T11:46:17.231Z,48.0
2019-03-23T11:47:16.570Z,47.8
2019-03-23T11:48:16.871Z,48.5
2019-03-23T11:49:17.217Z,49.0
2019-03-23T11:50:16.528Z,48.2
2019-03-23T11:51:16.568Z,47.0
2019-03-23T11:52:16.917Z,46.3
2019-03-23T11:53:17.274Z,46.5
2019-03-23T11:54:16.589Z,46.8
2019-03-23T11:55:16.898Z,46.8
2019-03-23T11:56:17.218Z,47.6
2019-03-23T11:57:16.496Z,47.2
2019-03-23T11:58:16.785Z,47.5
2019-03-23T11:59:17.101Z,47.4
2019-03-23T12:00:16.429Z,48.7
2019-03-23T12:01:16.483Z,49.6
2019-03-23T12:02:16.786Z,50.3
2019-03-23T12:03:17.078Z,50.6
2019-03-23T12:04:16.378Z,50.5
2019-03-23T12:05:16.680Z,50.5
2019-03-23T12:06:16.990Z,50.2
2019-03-23T12:07:16.296Z,51.0
2019-03-23T12:08:16.600Z,52.0
2019-03-23T12:09:16.912Z,52.1
2019-03-23T12:10:17.238Z,50.3
2019-03-23T12:11:17.295Z,51.0
2019-03-23T12:12:16.584Z,51.5
2019-03-23T12:13:16.872Z,51.5
2019-03-23T12:14:17.160Z,51.5
2019-03-23T12:15:16.458Z,52.4
2019-03-23T12:16:16.759Z,52.8
2019-03-23T12:17:17.070Z,52.1
2019-03-23T12:18:16.382Z,53.0
2019-03-23T12:19:16.687Z,51.2
2019-03-23T12:20:16.976Z,50.7
2019-03-23T12:21:17.024Z,50.1
2019-03-23T12:22:16.313Z,50.0
2019-03-23T12:23:16.608Z,50.4
2019-03-23T12:24:16.914Z,50.5
2019-03-23T12:25:17.217Z,49.4
2019-03-23T12:26:16.518Z,49.6
2019-03-23T12:27:16.837Z,49.3
2019-03-23T12:28:17.130Z,49.8
2019-03-23T12:29:16.406Z,49.1
2019-03-23T12:30:16.735Z,49.6
2019-03-23T12:31:16.802Z,50.2
2019-03-23T12:32:17.113Z,50.2
2019-03-23T12:33:16.408Z,49.9
2019-03-23T12:34:16.714Z,49.5
2019-03-23T12:35:17.008Z,49.6
2019-03-23T12:36:16.302Z,48.9
2019-03-23T12:37:16.599Z,49.2
2019-03-23T12:38:16.917Z,49.3
2019-03-23T12:39:17.190Z,48.5
2019-03-23T12:40:16.515Z,48.5
2019-03-23T12:41:23.587Z,48.5
2019-03-23T12:42:16.902Z,48.4
2019-03-23T12:43:17.220Z,49.0
2019-03-23T12:44:16.518Z,49.4
2019-03-23T12:45:16.845Z,49.8
2019-03-23T12:46:17.160Z,50.3
2019-03-23T12:47:16.524Z,50.0
2019-03-23T12:48:16.824Z,51.1
2019-03-23T12:49:17.121Z,51.7
2019-03-23T12:50:16.438Z,49.5
2019-03-23T12:51:16.463Z,50.2
2019-03-23T12:52:16.724Z,49.1
2019-03-23T12:53:17.025Z,48.8
2019-03-23T12:54:16.348Z,48.8
2019-03-23T12:55:16.665Z,48.5
2019-03-23T12:56:16.962Z,48.2
2019-03-23T12:57:17.295Z,48.7
2019-03-23T12:58:16.606Z,49.0
2019-03-23T12:59:16.881Z,49.1
2019-03-23T13:00:17.213Z,48.2
2019-03-23T13:01:17.240Z,48.1
2019-03-23T13:02:16.560Z,49.7
2019-03-23T13:03:16.859Z,49.5
2019-03-23T13:04:17.150Z,47.9
2019-03-23T13:05:16.444Z,48.0
2019-03-23T13:06:16.753Z,49.0
2019-03-23T13:07:17.071Z,49.1
2019-03-23T13:08:16.375Z,48.8
2019-03-23T13:09:16.679Z,48.5
2019-03-23T13:10:16.986Z,48.5
2019-03-23T13:11:31.077Z,48.9
2019-03-23T13:12:16.979Z,49.0
2019-03-23T13:13:17.321Z,49.0
2019-03-23T13:14:16.638Z,48.5
2019-03-23T13:15:16.944Z,48.5
2019-03-23T13:16:17.253Z,48.0
2019-03-23T13:17:16.540Z,47.5
2019-03-23T13:18:27.456Z,47.4